Time;durP1;ratioP1;P1;durP2;ratioP2;P2;SDS_P1;SDS_P2;PMS_P1;PMS_P2;Temp;Humidity;BMP_temperature;BMP_pressure;BME280_temperature;BME280_humidity;BME280_pressure;Samples;Min_cycle;Max_cycle;Signal;HPM_P1;HPM_P2
2023/06/23 00:00:24;;;;;;;6.03;2.40;;;18.20;99.90;;;;;;4993647;28;20051;-85
2023/06/23 00:02:51;;;;;;;9.18;3.05;;;18.20;99.90;;;;;;4977856;28;20430;-89
2023/06/23 00:05:18;;;;;;;10.57;3.30;;;18.10;99.90;;;;;;4992961;28;20054;-85
2023/06/23 00:07:45;;;;;;;15.27;3.22;;;18.10;99.90;;;;;;4999835;28;20146;-82
2023/06/23 00:10:12;;;;;;;11.27;3.53;;;18.00;99.90;;;;;;4978091;28;20053;-88
2023/06/23 00:12:41;;;;;;;8.05;2.80;;;18.00;99.90;;;;;;4976351;28;20038;-82
2023/06/23 00:18:00;;;;;;;9.70;3.15;;;17.90;99.90;;;;;;5008702;28;20061;-84
2023/06/23 00:20:27;;;;;;;7.50;2.85;;;17.70;99.90;;;;;;5009503;28;20062;-87
2023/06/23 00:22:55;;;;;;;6.75;2.80;;;17.50;99.90;;;;;;5009391;28;20067;-83
2023/06/23 00:28:08;;;;;;;9.60;3.72;;;17.60;99.90;;;;;;4977628;28;20105;-83
2023/06/23 00:30:37;;;;;;;8.38;3.03;;;17.60;99.90;;;;;;5008540;28;20070;-85
2023/06/23 00:33:04;;;;;;;8.00;2.92;;;17.70;99.90;;;;;;4976779;28;20125;-88
2023/06/23 00:35:31;;;;;;;10.25;3.35;;;17.70;99.90;;;;;;4977868;28;20366;-84
2023/06/23 00:37:59;;;;;;;8.38;3.25;;;17.80;99.90;;;;;;4991846;28;20046;-83
2023/06/23 00:40:25;;;;;;;10.18;3.10;;;17.80;99.90;;;;;;4977665;28;20034;-86
2023/06/23 00:42:55;;;;;;;9.57;2.97;;;17.80;99.90;;;;;;4976872;28;20051;-84
2023/06/23 00:45:25;;;;;;;10.13;3.20;;;17.80;99.90;;;;;;4977004;28;20057;-83
2023/06/23 00:47:52;;;;;;;17.48;3.17;;;17.90;99.90;;;;;;4992789;28;20055;-83
2023/06/23 00:50:19;;;;;;;9.00;3.50;;;17.90;99.90;;;;;;4976584;28;20050;-85
2023/06/23 00:52:50;;;;;;;9.75;3.10;;;18.00;99.90;;;;;;4976085;28;20358;-82
2023/06/23 00:58:10;;;;;;;7.88;3.13;;;18.10;99.90;;;;;;4975703;28;20055;-84
2023/06/23 01:00:37;;;;;;;9.32;3.10;;;18.20;99.90;;;;;;5008864;28;20042;-85
2023/06/23 01:03:04;;;;;;;11.38;3.15;;;18.10;99.90;;;;;;4993033;28;20042;-85
2023/06/23 01:05:35;;;;;;;11.40;3.20;;;18.10;99.90;;;;;;5008196;28;20042;-85
2023/06/23 01:08:03;;;;;;;8.10;3.20;;;18.10;99.90;;;;;;4976091;28;20130;-87
2023/06/23 01:10:31;;;;;;;7.13;2.88;;;18.10;99.90;;;;;;4974468;28;20381;-84
2023/06/23 01:13:00;;;;;;;7.82;3.10;;;18.10;99.90;;;;;;5007489;28;20434;-86
2023/06/23 01:15:27;;;;;;;9.13;2.92;;;18.10;99.90;;;;;;4991943;28;20047;-85
2023/06/23 01:17:55;;;;;;;10.93;3.40;;;18.20;99.90;;;;;;4991171;28;20042;-84
2023/06/23 01:20:21;;;;;;;9.88;3.03;;;18.20;99.90;;;;;;4976847;28;20053;-84
2023/06/23 01:22:48;;;;;;;7.53;2.90;;;18.10;99.90;;;;;;4975867;28;20050;-83
2023/06/23 01:28:01;;;;;;;6.90;3.13;;;18.10;99.90;;;;;;4989756;28;20061;-81
2023/06/23 01:30:27;;;;;;;8.18;3.45;;;18.00;99.90;;;;;;5010720;28;20081;-82
2023/06/23 01:32:56;;;;;;;8.85;3.20;;;17.90;99.90;;;;;;4996515;28;20038;-84
2023/06/23 01:35:24;;;;;;;7.00;2.92;;;17.90;99.90;;;;;;5011091;28;20042;-85
2023/06/23 01:37:51;;;;;;;8.52;3.20;;;17.70;99.90;;;;;;5010697;28;20046;-86
2023/06/23 01:40:18;;;;;;;9.13;3.38;;;17.70;99.90;;;;;;5011322;28;20038;-81
2023/06/23 01:42:45;;;;;;;7.35;3.22;;;17.70;99.90;;;;;;4996653;28;20042;-84
2023/06/23 01:48:01;;;;;;;8.07;3.35;;;17.60;99.90;;;;;;5010992;28;20050;-88
2023/06/23 01:50:27;;;;;;;9.82;3.33;;;17.60;99.90;;;;;;4994207;28;20133;-83
2023/06/23 01:52:54;;;;;;;8.75;3.30;;;17.70;99.90;;;;;;5011285;28;20046;-84
2023/06/23 01:58:09;;;;;;;8.55;3.20;;;17.70;99.90;;;;;;4993799;28;20104;-82
2023/06/23 02:00:36;;;;;;;8.57;3.78;;;17.70;99.90;;;;;;5010942;28;20054;-84
2023/06/23 02:03:03;;;;;;;9.93;3.40;;;17.70;99.90;;;;;;4995254;28;20092;-84
2023/06/23 02:08:16;;;;;;;9.95;3.35;;;17.60;99.90;;;;;;5010993;28;20058;-85
2023/06/23 02:10:42;;;;;;;12.25;3.55;;;17.50;99.90;;;;;;5010039;28;20054;-89
2023/06/23 02:13:11;;;;;;;9.77;3.55;;;17.40;99.90;;;;;;4995283;28;20046;-82
2023/06/23 02:15:38;;;;;;;9.95;3.60;;;17.40;99.90;;;;;;5010834;28;20054;-85
2023/06/23 02:18:05;;;;;;;8.00;3.50;;;17.40;99.90;;;;;;5010073;28;20125;-85
2023/06/23 02:20:32;;;;;;;9.38;3.60;;;17.30;99.90;;;;;;5010844;28;20134;-85
2023/06/23 02:22:58;;;;;;;8.90;3.22;;;17.30;99.90;;;;;;4995567;28;20052;-81
2023/06/23 02:25:27;;;;;;;8.20;3.25;;;17.20;99.90;;;;;;5010443;28;20050;-86
2023/06/23 02:27:54;;;;;;;8.57;3.55;;;17.20;99.90;;;;;;5010748;28;20065;-88
2023/06/23 02:30:24;;;;;;;9.48;3.60;;;17.20;99.90;;;;;;5010485;28;20461;-86
2023/06/23 02:32:52;;;;;;;11.25;3.20;;;17.20;99.90;;;;;;5010928;28;20053;-84
2023/06/23 02:35:19;;;;;;;9.38;3.10;;;17.10;99.90;;;;;;5010642;28;20046;-87
2023/06/23 02:37:46;;;;;;;9.15;3.40;;;17.10;99.90;;;;;;4994472;28;20369;-85
2023/06/23 02:40:16;;;;;;;9.20;3.17;;;17.00;99.90;;;;;;5011151;28;20034;-84
2023/06/23 02:42:43;;;;;;;13.40;3.30;;;17.00;99.90;;;;;;4994276;28;20047;-84
2023/06/23 02:45:09;;;;;;;9.75;3.33;;;17.00;99.90;;;;;;4993409;28;20362;-84
2023/06/23 02:47:36;;;;;;;8.70;3.33;;;16.90;99.90;;;;;;4995149;28;20070;-88
2023/06/23 02:50:03;;;;;;;14.60;3.05;;;16.90;99.90;;;;;;4994147;28;20069;-84
2023/06/23 02:52:34;;;;;;;9.07;3.10;;;16.90;99.90;;;;;;4994386;28;20046;-86
2023/06/23 02:55:03;;;;;;;8.55;3.55;;;16.90;99.90;;;;;;5011001;28;20058;-85
2023/06/23 02:57:30;;;;;;;10.68;3.60;;;16.80;99.90;;;;;;5009726;28;20039;-85
2023/06/23 02:59:57;;;;;;;8.85;3.53;;;16.80;99.90;;;;;;4995312;28;20089;-85
2023/06/23 03:02:24;;;;;;;11.48;3.25;;;16.60;99.90;;;;;;5010488;28;20469;-85
2023/06/23 03:04:53;;;;;;;9.50;3.70;;;16.40;99.90;;;;;;4993687;28;20112;-83
2023/06/23 03:07:20;;;;;;;8.35;3.22;;;16.40;99.90;;;;;;5010168;28;20050;-84
2023/06/23 03:09:46;;;;;;;14.20;3.80;;;16.40;99.90;;;;;;4995533;28;20047;-86
2023/06/23 03:12:13;;;;;;;8.10;3.00;;;16.50;99.90;;;;;;4993764;28;20668;-89
2023/06/23 03:14:40;;;;;;;11.07;3.10;;;16.50;99.90;;;;;;5012273;28;20464;-84
2023/06/23 03:17:07;;;;;;;10.80;3.53;;;16.50;99.90;;;;;;5012961;28;20084;-86
2023/06/23 03:19:34;;;;;;;9.23;3.95;;;16.60;99.90;;;;;;5014045;28;20043;-85
2023/06/23 03:22:00;;;;;;;8.57;3.58;;;16.50;99.90;;;;;;5013818;28;20438;-87
2023/06/23 03:27:15;;;;;;;9.93;3.45;;;16.50;99.90;;;;;;4998541;28;20046;-86
2023/06/23 03:29:42;;;;;;;8.13;3.72;;;16.50;99.90;;;;;;4997365;28;20069;-84
2023/06/23 03:32:09;;;;;;;10.63;3.25;;;16.50;99.90;;;;;;5013155;28;20495;-84
2023/06/23 03:37:06;;;;;;;7.67;3.33;;;16.40;99.90;;;;;;4997057;28;20061;-82
2023/06/23 03:39:33;;;;;;;8.85;3.30;;;16.30;99.90;;;;;;5013609;28;20511;-86
2023/06/23 03:42:01;;;;;;;8.77;3.33;;;16.30;99.90;;;;;;4998129;28;20100;-84
2023/06/23 03:44:30;;;;;;;8.63;3.38;;;16.20;99.90;;;;;;5012769;28;20049;-84
2023/06/23 03:46:57;;;;;;;7.95;3.25;;;16.20;99.90;;;;;;4998252;28;20057;-86
2023/06/23 03:49:24;;;;;;;7.88;3.25;;;16.20;99.90;;;;;;4997578;28;20500;-86
2023/06/23 03:51:50;;;;;;;9.55;3.38;;;16.20;99.90;;;;;;5012725;28;20051;-86
2023/06/23 03:54:17;;;;;;;9.02;3.20;;;16.20;99.90;;;;;;4997941;28;20070;-84
2023/06/23 03:56:44;;;;;;;10.13;3.60;;;16.20;99.90;;;;;;5013424;28;20062;-84
2023/06/23 03:59:11;;;;;;;10.68;3.42;;;16.20;99.90;;;;;;5012660;28;20070;-84
2023/06/23 04:01:37;;;;;;;9.18;3.33;;;16.20;99.90;;;;;;5013459;28;20430;-82
2023/06/23 04:04:04;;;;;;;8.68;3.20;;;16.20;99.90;;;;;;4997097;28;20085;-83
2023/06/23 04:06:32;;;;;;;8.95;3.25;;;16.20;99.90;;;;;;5013323;28;20504;-84
2023/06/23 04:08:59;;;;;;;7.20;3.10;;;16.20;99.90;;;;;;4977732;28;20054;-82
2023/06/23 04:11:26;;;;;;;10.13;3.40;;;16.20;99.90;;;;;;4977546;28;20109;-83
2023/06/23 04:13:52;;;;;;;8.00;3.25;;;16.20;99.90;;;;;;4978196;28;20042;-84
2023/06/23 04:16:20;;;;;;;8.57;3.25;;;16.10;99.90;;;;;;4978193;28;20042;-85
2023/06/23 04:18:47;;;;;;;13.63;3.67;;;16.20;99.90;;;;;;4977144;28;20047;-83
2023/06/23 04:21:14;;;;;;;6.55;3.00;;;16.20;99.90;;;;;;4961079;28;20094;-84
2023/06/23 04:23:40;;;;;;;9.98;3.22;;;16.20;99.90;;;;;;4960734;28;20500;-84
2023/06/23 04:26:07;;;;;;;8.13;3.47;;;16.10;99.90;;;;;;4959338;28;20043;-83
2023/06/23 04:28:34;;;;;;;9.57;3.08;;;16.10;99.90;;;;;;4977668;28;20133;-83
2023/06/23 04:31:01;;;;;;;9.20;3.63;;;16.10;99.90;;;;;;4976247;28;20043;-87
2023/06/23 04:33:28;;;;;;;9.60;3.63;;;16.20;99.90;;;;;;4976762;28;20113;-87
2023/06/23 04:35:57;;;;;;;11.27;3.42;;;16.20;99.90;;;;;;4976773;28;20134;-83
2023/06/23 04:38:24;;;;;;;8.70;3.17;;;16.30;99.90;;;;;;4975915;28;20054;-87
2023/06/23 04:40:51;;;;;;;7.30;3.08;;;16.30;99.90;;;;;;4961489;28;20039;-86
2023/06/23 04:43:18;;;;;;;10.38;3.53;;;16.40;99.90;;;;;;4976387;28;20058;-86
2023/06/23 04:48:30;;;;;;;7.82;3.38;;;16.60;99.90;;;;;;4977581;28;20058;-83
2023/06/23 04:50:57;;;;;;;7.97;3.15;;;16.70;99.90;;;;;;4975877;28;20053;-86
2023/06/23 04:53:27;;;;;;;10.40;3.60;;;16.80;99.90;;;;;;4977624;28;20046;-86
2023/06/23 04:58:41;;;;;;;8.32;3.00;;;17.00;99.90;;;;;;4976525;28;20047;-84
2023/06/23 05:01:08;;;;;;;9.95;3.60;;;17.10;99.90;;;;;;4976302;28;20355;-85
2023/06/23 05:03:35;;;;;;;7.88;3.75;;;17.10;99.90;;;;;;4977144;28;20466;-86
2023/06/23 05:08:33;;;;;;;9.87;3.33;;;17.30;99.90;;;;;;4988921;28;20058;-88
2023/06/23 05:11:04;;;;;;;7.70;3.13;;;17.50;99.90;;;;;;4995472;28;20062;-83
2023/06/23 05:13:30;;;;;;;7.90;3.50;;;17.60;99.90;;;;;;4996624;28;20472;-86
2023/06/23 05:18:43;;;;;;;9.65;3.47;;;17.60;99.90;;;;;;4995736;28;20061;-85
2023/06/23 05:21:09;;;;;;;9.07;3.83;;;17.70;99.90;;;;;;5012040;28;20050;-88
2023/06/23 05:23:36;;;;;;;10.52;3.67;;;17.80;99.90;;;;;;5011883;28;20100;-86
2023/06/23 05:26:19;;;;;;;9.77;4.03;;;17.90;99.90;;;;;;4996164;28;20054;-85
2023/06/23 05:28:46;;;;;;;8.73;3.90;;;18.10;99.90;;;;;;5012301;28;20509;-84
2023/06/23 05:31:13;;;;;;;12.82;4.03;;;18.20;99.90;;;;;;5010707;28;20058;-84
2023/06/23 05:33:39;;;;;;;9.52;3.55;;;18.30;99.90;;;;;;5011197;28;20049;-86
2023/06/23 05:38:54;;;;;;;8.10;3.20;;;18.60;99.90;;;;;;4995526;28;20113;-83
2023/06/23 05:41:20;;;;;;;9.55;3.80;;;18.70;99.90;;;;;;4995463;28;20050;-85
2023/06/23 05:43:47;;;;;;;7.88;3.50;;;18.70;99.90;;;;;;4994528;28;20050;-83
2023/06/23 05:46:15;;;;;;;7.93;3.30;;;18.80;99.90;;;;;;4995624;28;20129;-84
2023/06/23 05:48:42;;;;;;;11.02;4.03;;;18.80;99.90;;;;;;4994813;28;20054;-85
2023/06/23 05:51:09;;;;;;;9.57;3.53;;;18.90;99.90;;;;;;5010505;28;20108;-86
2023/06/23 05:53:35;;;;;;;8.75;4.03;;;19.00;99.90;;;;;;5011120;28;20042;-86
2023/06/23 05:59:05;;;;;;;9.88;3.33;;;19.20;99.90;;;;;;4994807;28;20030;-86
2023/06/23 06:01:33;;;;;;;9.57;3.08;;;19.20;99.90;;;;;;5011284;28;20054;-83
2023/06/23 06:04:00;;;;;;;9.40;3.50;;;19.30;99.90;;;;;;4994802;28;20120;-82
2023/06/23 06:06:28;;;;;;;10.82;4.47;;;19.40;99.90;;;;;;5010990;28;20129;-88
2023/06/23 06:08:55;;;;;;;10.18;3.97;;;19.60;99.90;;;;;;5011199;28;20450;-81
2023/06/23 06:11:21;;;;;;;12.35;4.22;;;19.70;99.90;;;;;;5011507;28;20094;-86
2023/06/23 06:13:51;;;;;;;10.18;4.20;;;19.80;99.90;;;;;;5011576;28;20054;-85
2023/06/23 06:19:06;;;;;;;10.38;4.28;;;20.20;99.90;;;;;;4995093;28;20046;-85
2023/06/23 06:21:33;;;;;;;11.48;4.50;;;20.30;99.90;;;;;;4994721;28;20069;-84
2023/06/23 06:24:00;;;;;;;11.95;4.38;;;20.40;99.90;;;;;;5010665;28;20058;-83
2023/06/23 06:29:13;;;;;;;13.00;5.53;;;20.50;99.90;;;;;;4994747;28;20461;-82
2023/06/23 06:31:40;;;;;;;10.73;4.68;;;20.40;99.90;;;;;;5010037;28;20054;-86
2023/06/23 06:34:07;;;;;;;10.50;4.97;;;20.40;99.90;;;;;;5011026;28;20461;-86
2023/06/23 06:39:20;;;;;;;8.93;3.50;;;20.60;99.90;;;;;;5010227;28;20042;-85
2023/06/23 06:41:47;;;;;;;10.65;3.97;;;20.80;99.90;;;;;;4995578;28;20043;-86
2023/06/23 06:44:14;;;;;;;8.52;3.67;;;20.90;99.90;;;;;;5009932;28;20058;-82
2023/06/23 06:46:42;;;;;;;11.27;4.25;;;20.90;99.90;;;;;;5011071;28;20097;-84
2023/06/23 06:49:08;;;;;;;9.18;4.18;;;21.10;99.90;;;;;;4996983;28;20050;-86
2023/06/23 06:51:35;;;;;;;19.10;9.07;;;21.20;99.90;;;;;;5014802;28;20524;-86
2023/06/23 06:54:02;;;;;;;16.25;7.65;;;21.20;99.90;;;;;;5015493;28;20100;-83
2023/06/23 06:59:16;;;;;;;14.10;5.15;;;21.20;99.90;;;;;;4998128;28;20054;-84
2023/06/23 07:01:43;;;;;;;11.82;5.22;;;21.20;99.90;;;;;;4998431;28;20054;-84
2023/06/23 07:04:10;;;;;;;18.80;6.63;;;21.30;99.90;;;;;;4998324;28;20074;-83
2023/06/23 07:06:37;;;;;;;11.93;5.32;;;21.40;99.90;;;;;;5014684;28;20149;-83
2023/06/23 07:09:03;;;;;;;12.45;5.30;;;21.60;99.90;;;;;;4999304;28;20394;-86
2023/06/23 07:11:31;;;;;;;11.43;5.55;;;21.80;99.90;;;;;;4998437;28;20054;-82
2023/06/23 07:13:58;;;;;;;12.10;4.70;;;22.00;99.90;;;;;;4999375;28;20104;-82
2023/06/23 07:16:30;;;;;;;18.45;6.13;;;22.10;99.90;;;;;;4998333;28;20134;-87
2023/06/23 07:18:57;;;;;;;14.57;5.82;;;22.30;99.90;;;;;;4998118;28;20357;-87
2023/06/23 07:21:24;;;;;;;14.57;5.72;;;22.60;99.90;;;;;;4999494;28;20445;-84
2023/06/23 07:23:51;;;;;;;9.85;4.28;;;22.70;99.90;;;;;;4981533;28;20061;-86
2023/06/23 07:29:03;;;;;;;8.45;3.45;;;22.70;99.90;;;;;;4998471;28;20440;-83
2023/06/23 07:31:30;;;;;;;8.95;3.08;;;22.90;99.90;;;;;;4998319;28;20058;-89
2023/06/23 07:33:57;;;;;;;6.90;3.00;;;23.00;99.90;;;;;;4999285;28;20054;-85
2023/06/23 07:36:25;;;;;;;7.55;3.00;;;23.20;99.90;;;;;;4981640;28;20446;-88
2023/06/23 07:38:52;;;;;;;9.70;3.50;;;23.30;99.90;;;;;;4997142;28;20369;-85
2023/06/23 07:41:18;;;;;;;8.10;3.10;;;23.30;99.90;;;;;;4997594;28;20038;-88
2023/06/23 07:43:45;;;;;;;8.10;3.00;;;23.30;99.90;;;;;;4981892;28;20057;-83
2023/06/23 07:46:13;;;;;;;10.63;3.35;;;23.10;99.90;;;;;;4981205;28;20142;-86
2023/06/23 07:48:40;;;;;;;9.63;3.90;;;23.00;99.90;;;;;;4997259;28;20130;-85
2023/06/23 07:51:06;;;;;;;8.52;3.65;;;22.70;99.90;;;;;;4996457;28;20052;-85
2023/06/23 07:53:33;;;;;;;8.60;3.00;;;22.60;99.90;;;;;;4996836;28;20046;-83
2023/06/23 07:56:00;;;;;;;10.77;3.10;;;22.50;99.90;;;;;;4997245;28;20043;-86
2023/06/23 07:58:27;;;;;;;7.82;3.45;;;22.50;99.90;;;;;;4996889;28;20353;-84
2023/06/23 08:00:54;;;;;;;10.25;3.70;;;22.90;99.90;;;;;;4996130;28;20038;-86
2023/06/23 08:03:20;;;;;;;9.38;3.42;;;23.10;99.90;;;;;;4980632;28;20062;-83
2023/06/23 08:05:48;;;;;;;7.10;3.40;;;23.20;99.90;;;;;;4996259;28;20043;-88
2023/06/23 08:08:15;;;;;;;10.13;3.38;;;23.40;99.90;;;;;;4991563;28;20112;-82
2023/06/23 08:10:43;;;;;;;7.78;3.17;;;23.60;99.90;;;;;;4996426;28;20461;-83
2023/06/23 08:13:10;;;;;;;6.78;2.70;;;23.60;99.90;;;;;;5013337;28;20054;-83
2023/06/23 08:15:41;;;;;;;8.93;3.65;;;23.80;99.90;;;;;;5013265;28;20117;-83
2023/06/23 08:18:07;;;;;;;9.27;3.67;;;23.90;99.90;;;;;;4997219;28;20065;-86
2023/06/23 08:20:34;;;;;;;9.20;3.80;;;24.20;99.90;;;;;;4996991;28;20038;-84
2023/06/23 08:23:01;;;;;;;7.63;3.35;;;24.40;99.90;;;;;;5010093;28;20428;-83
2023/06/23 08:25:28;;;;;;;7.75;3.55;;;24.50;99.90;;;;;;4991782;28;20449;-81
2023/06/23 08:27:55;;;;;;;10.32;3.88;;;24.50;99.90;;;;;;4996905;28;20050;-82
2023/06/23 08:30:23;;;;;;;9.23;3.55;;;24.30;99.90;;;;;;4980135;28;20039;-81
2023/06/23 08:32:49;;;;;;;8.55;4.40;;;24.20;99.90;;;;;;4996530;28;20050;-87
2023/06/23 08:38:03;;;;;;;9.43;3.63;;;24.20;99.90;;;;;;4994137;28;20116;-82
2023/06/23 08:40:29;;;;;;;8.80;4.57;;;24.20;99.90;;;;;;5012435;28;20129;-80
2023/06/23 08:42:56;;;;;;;9.18;3.85;;;24.30;99.90;;;;;;4996908;28;20046;-80
2023/06/23 08:45:25;;;;;;;10.07;3.92;;;24.40;99.90;;;;;;5011175;28;20042;-80
2023/06/23 08:47:51;;;;;;;11.70;3.83;;;24.50;99.90;;;;;;4996622;28;20095;-82
2023/06/23 08:50:20;;;;;;;8.48;4.28;;;24.60;99.90;;;;;;4996784;28;20105;-82
2023/06/23 08:52:47;;;;;;;8.50;3.70;;;25.00;99.90;;;;;;4995668;28;20126;-82
2023/06/23 08:55:14;;;;;;;8.57;3.88;;;25.30;99.90;;;;;;4996565;28;20039;-84
2023/06/23 08:57:40;;;;;;;11.00;5.25;;;25.30;99.90;;;;;;4995554;28;20122;-86
2023/06/23 09:00:10;;;;;;;8.52;4.03;;;25.40;99.90;;;;;;5001997;28;20528;-81
2023/06/23 09:02:37;;;;;;;9.10;4.95;;;25.50;99.90;;;;;;4975980;28;20065;-84
2023/06/23 09:05:05;;;;;;;11.57;5.10;;;25.70;99.90;;;;;;4975260;28;20062;-84
2023/06/23 09:07:32;;;;;;;8.40;5.30;;;25.80;99.90;;;;;;4990619;28;20050;-83
2023/06/23 09:09:58;;;;;;;10.55;5.05;;;25.50;99.90;;;;;;4979235;28;20046;-87
2023/06/23 09:12:25;;;;;;;10.85;5.60;;;25.70;99.90;;;;;;4978009;28;20077;-83
2023/06/23 09:14:53;;;;;;;7.68;4.70;;;25.90;99.90;;;;;;4994432;28;20042;-83
2023/06/23 09:17:20;;;;;;;9.38;5.22;;;26.10;99.90;;;;;;4995145;28;20038;-82
2023/06/23 09:19:50;;;;;;;11.23;5.40;;;26.20;99.90;;;;;;4996633;28;20050;-83
2023/06/23 09:22:17;;;;;;;8.95;5.35;;;26.00;99.90;;;;;;5010723;28;20133;-86
2023/06/23 09:24:44;;;;;;;9.30;4.38;;;25.80;99.90;;;;;;5010253;28;20114;-85
2023/06/23 09:27:10;;;;;;;8.52;5.63;;;25.50;99.90;;;;;;4995731;28;20358;-84
2023/06/23 09:29:37;;;;;;;7.53;4.55;;;25.70;99.90;;;;;;4995464;28;20096;-83
2023/06/23 09:32:04;;;;;;;8.32;4.90;;;25.90;99.90;;;;;;4978124;28;20039;-84
2023/06/23 09:37:18;;;;;;;12.45;4.70;;;26.30;99.90;;;;;;4977269;28;20050;-86
2023/06/23 09:39:45;;;;;;;8.65;4.90;;;26.20;99.90;;;;;;4994744;28;20371;-85
2023/06/23 09:42:12;;;;;;;8.18;4.65;;;26.10;99.90;;;;;;4994500;28;20050;-83
2023/06/23 09:44:41;;;;;;;8.57;5.07;;;26.30;99.90;;;;;;4994419;28;20045;-84
2023/06/23 09:47:10;;;;;;;9.00;4.60;;;26.60;99.90;;;;;;4994620;28;20065;-86
2023/06/23 09:49:36;;;;;;;7.75;4.80;;;26.70;99.90;;;;;;4994497;28;20042;-84
2023/06/23 09:52:03;;;;;;;7.35;4.43;;;27.00;99.90;;;;;;4994923;28;20100;-86
2023/06/23 09:54:31;;;;;;;9.02;4.38;;;27.20;99.90;;;;;;4995331;28;20042;-90
2023/06/23 09:56:58;;;;;;;9.60;4.25;;;27.40;99.90;;;;;;4981919;28;20046;-83
2023/06/23 09:59:25;;;;;;;7.45;4.90;;;27.40;99.90;;;;;;4973251;28;20043;-85
2023/06/23 10:01:53;;;;;;;8.57;4.80;;;27.20;99.90;;;;;;4989240;28;20117;-83
2023/06/23 10:04:20;;;;;;;8.25;4.72;;;26.90;99.90;;;;;;4994207;28;20070;-86
2023/06/23 10:06:47;;;;;;;9.25;4.80;;;26.70;99.90;;;;;;4994627;28;20463;-82
2023/06/23 10:09:14;;;;;;;7.88;4.50;;;26.60;99.90;;;;;;4995049;28;20070;-86
2023/06/23 10:11:43;;;;;;;8.73;4.10;;;26.50;99.90;;;;;;4994131;28;20473;-88
2023/06/23 10:14:11;;;;;;;6.75;3.80;;;26.50;99.90;;;;;;4995365;28;20065;-88
2023/06/23 10:16:41;;;;;;;8.32;4.43;;;26.60;99.90;;;;;;4994786;28;20446;-88
2023/06/23 10:19:07;;;;;;;8.60;4.55;;;26.80;99.90;;;;;;4994215;28;20038;-85
2023/06/23 10:21:34;;;;;;;7.28;4.20;;;26.90;99.90;;;;;;4981054;28;20039;-83
2023/06/23 10:24:01;;;;;;;7.82;4.15;;;26.70;99.90;;;;;;4965364;28;20049;-85
2023/06/23 10:26:29;;;;;;;7.78;4.10;;;26.70;99.90;;;;;;4999326;28;20050;-86
2023/06/23 10:28:56;;;;;;;9.05;4.00;;;26.40;99.90;;;;;;4958391;28;20461;-85
2023/06/23 10:31:23;;;;;;;6.85;3.65;;;26.30;99.90;;;;;;4992102;28;20472;-83
2023/06/23 10:33:53;;;;;;;9.07;3.87;;;26.40;99.90;;;;;;4999115;28;20104;-85
2023/06/23 10:36:21;;;;;;;11.70;3.95;;;26.40;99.90;;;;;;4981620;28;20477;-83
2023/06/23 10:38:48;;;;;;;8.18;4.22;;;26.30;99.90;;;;;;4998287;28;20042;-85
2023/06/23 10:41:15;;;;;;;6.50;3.80;;;26.40;99.90;;;;;;4981892;28;20081;-87
2023/06/23 10:43:41;;;;;;;6.93;3.58;;;26.40;99.90;;;;;;4997443;28;20424;-82
2023/06/23 10:46:08;;;;;;;7.47;3.70;;;26.50;99.90;;;;;;4997530;28;20054;-84
2023/06/23 10:48:35;;;;;;;6.88;3.80;;;26.70;99.90;;;;;;4981235;28;20042;-81
2023/06/23 10:51:02;;;;;;;6.25;3.63;;;27.10;99.90;;;;;;4997790;28;20065;-82
2023/06/23 10:53:28;;;;;;;7.07;3.97;;;27.30;99.90;;;;;;4981542;28;20051;-81
2023/06/23 10:55:57;;;;;;;7.57;3.67;;;27.40;99.90;;;;;;4998132;28;20100;-82
2023/06/23 10:58:36;;;;;;;6.78;3.60;;;27.60;99.90;;;;;;4997734;28;20427;-79
2023/06/23 11:01:02;;;;;;;6.30;3.67;;;27.40;99.90;;;;;;4981414;28;20143;-82
2023/06/23 11:03:30;;;;;;;7.28;4.05;;;27.50;99.90;;;;;;4998581;28;20056;-80
2023/06/23 11:05:57;;;;;;;8.40;3.65;;;27.70;99.90;;;;;;4997268;28;20034;-80
2023/06/23 11:08:24;;;;;;;7.72;3.90;;;28.10;99.90;;;;;;4998609;28;20069;-79
2023/06/23 11:10:51;;;;;;;7.05;4.18;;;27.70;99.90;;;;;;4995029;28;20054;-81
2023/06/23 11:13:18;;;;;;;10.00;3.95;;;27.30;99.90;;;;;;4988364;28;20129;-81
2023/06/23 11:15:45;;;;;;;7.05;4.20;;;27.50;99.90;;;;;;4998173;28;20088;-83
2023/06/23 11:18:14;;;;;;;6.88;4.30;;;27.60;99.90;;;;;;4997939;28;20488;-80
2023/06/23 11:20:41;;;;;;;9.55;3.92;;;27.80;99.90;;;;;;4998150;28;20084;-81
2023/06/23 11:23:08;;;;;;;8.27;4.05;;;28.40;99.90;;;;;;4998461;28;20361;-82
2023/06/23 11:25:36;;;;;;;6.05;3.88;;;29.10;99.90;;;;;;4979627;28;20047;-79
2023/06/23 11:28:02;;;;;;;8.10;3.78;;;29.30;99.90;;;;;;5006507;28;20469;-82
2023/06/23 11:30:29;;;;;;;7.28;3.72;;;29.50;99.90;;;;;;4997453;28;20417;-83
2023/06/23 11:32:56;;;;;;;9.13;3.90;;;29.70;99.90;;;;;;4989608;28;20038;-80
2023/06/23 11:35:25;;;;;;;9.55;3.95;;;29.70;99.90;;;;;;4987501;28;20039;-82
2023/06/23 11:37:51;;;;;;;7.13;3.45;;;29.60;98.80;;;;;;4989761;28;20465;-79
2023/06/23 11:40:19;;;;;;;7.82;3.40;;;29.50;96.00;;;;;;4991932;28;20042;-80
2023/06/23 11:42:46;;;;;;;6.05;3.30;;;29.40;96.00;;;;;;4978678;28;20101;-82
2023/06/23 11:45:13;;;;;;;7.22;3.28;;;29.00;95.00;;;;;;4977423;28;20122;-80
2023/06/23 11:47:39;;;;;;;7.40;3.20;;;28.80;95.30;;;;;;4978246;28;20403;-82
2023/06/23 11:50:06;;;;;;;6.38;3.13;;;29.20;94.60;;;;;;4978578;28;20443;-81
2023/06/23 11:52:33;;;;;;;6.53;3.40;;;29.40;94.30;;;;;;4977568;28;20078;-80
2023/06/23 11:55:01;;;;;;;6.75;3.63;;;29.30;94.60;;;;;;4978180;28;20070;-79
2023/06/23 11:57:28;;;;;;;7.82;3.40;;;29.60;95.20;;;;;;4977609;28;20047;-80
2023/06/23 11:59:54;;;;;;;5.43;3.05;;;29.70;95.10;;;;;;4994636;28;20119;-82
2023/06/23 12:02:22;;;;;;;7.05;3.47;;;29.40;94.80;;;;;;5017612;28;20073;-82
2023/06/23 12:04:50;;;;;;;6.22;3.67;;;29.60;95.00;;;;;;5016335;28;20052;-82
2023/06/23 12:07:17;;;;;;;5.78;3.35;;;29.90;94.30;;;;;;5017142;28;20116;-82
2023/06/23 12:09:44;;;;;;;6.40;3.50;;;30.10;93.60;;;;;;5017059;28;20117;-80
2023/06/23 12:12:11;;;;;;;6.78;3.50;;;30.10;93.70;;;;;;5016141;28;20353;-82
2023/06/23 12:14:44;;;;;;;6.50;3.22;;;29.60;93.90;;;;;;5017053;28;20368;-80
2023/06/23 12:17:11;;;;;;;9.73;4.10;;;29.70;94.90;;;;;;5016108;28;20042;-78
2023/06/23 12:19:38;;;;;;;8.35;4.20;;;30.10;93.60;;;;;;5005033;28;20435;-82
2023/06/23 12:22:05;;;;;;;6.43;3.80;;;30.10;94.30;;;;;;4985396;28;20417;-81
2023/06/23 12:24:31;;;;;;;5.90;3.33;;;30.30;93.20;;;;;;4996284;28;20050;-79
2023/06/23 12:26:58;;;;;;;5.78;3.10;;;30.00;92.80;;;;;;4996712;28;20469;-78
2023/06/23 12:29:25;;;;;;;7.28;3.17;;;29.60;92.00;;;;;;4997103;28;20405;-80
2023/06/23 12:31:52;;;;;;;7.32;3.03;;;29.30;90.80;;;;;;4996217;28;20042;-79
2023/06/23 12:34:19;;;;;;;5.35;2.53;;;29.60;90.30;;;;;;4995673;28;20444;-79
2023/06/23 12:36:48;;;;;;;5.00;2.55;;;29.90;87.70;;;;;;4996082;28;20138;-79
2023/06/23 12:39:17;;;;;;;6.13;2.70;;;30.20;86.30;;;;;;4995916;28;20105;-78
2023/06/23 12:41:44;;;;;;;4.95;2.28;;;30.30;84.10;;;;;;4995935;28;20077;-80
2023/06/23 12:44:11;;;;;;;4.63;2.05;;;30.30;82.20;;;;;;4995123;28;20042;-78
2023/06/23 12:46:37;;;;;;;5.47;2.28;;;30.80;81.10;;;;;;4996046;28;20129;-79
2023/06/23 12:49:05;;;;;;;5.55;2.25;;;31.30;82.60;;;;;;4979068;28;20046;-81
2023/06/23 12:51:32;;;;;;;4.85;2.00;;;31.70;80.40;;;;;;4994824;28;20054;-80
2023/06/23 12:54:00;;;;;;;6.22;2.30;;;31.70;79.70;;;;;;4996536;28;20046;-79
2023/06/23 12:56:27;;;;;;;6.93;2.70;;;31.90;78.20;;;;;;4995795;28;20073;-80
2023/06/23 12:58:53;;;;;;;4.65;2.20;;;32.10;76.00;;;;;;4995463;28;20515;-79
2023/06/23 13:01:20;;;;;;;5.70;2.00;;;32.40;74.10;;;;;;4977925;28;20537;-80
2023/06/23 13:03:47;;;;;;;8.32;2.40;;;32.20;72.60;;;;;;4995360;28;20461;-80
2023/06/23 13:06:15;;;;;;;4.95;2.17;;;32.50;74.00;;;;;;4996167;28;20125;-78
2023/06/23 13:08:42;;;;;;;4.93;2.20;;;32.70;78.20;;;;;;4996356;28;20062;-79
2023/06/23 13:11:09;;;;;;;4.70;2.20;;;32.90;72.10;;;;;;4995275;28;20118;-80
2023/06/23 13:13:36;;;;;;;5.40;1.95;;;32.30;71.20;;;;;;4996145;28;20038;-81
2023/06/23 13:16:03;;;;;;;10.38;2.28;;;32.60;73.10;;;;;;4995794;28;20050;-82
2023/06/23 13:18:29;;;;;;;4.70;2.03;;;32.80;71.10;;;;;;4994628;28;20039;-82
2023/06/23 13:20:56;;;;;;;7.90;1.90;;;33.00;70.20;;;;;;4994024;28;20145;-80
2023/06/23 13:23:23;;;;;;;4.95;2.05;;;32.50;69.10;;;;;;4994996;28;20082;-81
2023/06/23 13:25:51;;;;;;;4.28;1.90;;;32.40;70.70;;;;;;4990873;28;20061;-79
2023/06/23 13:28:17;;;;;;;4.75;2.10;;;32.40;69.00;;;;;;4995910;28;20448;-82
2023/06/23 13:30:44;;;;;;;4.55;2.00;;;33.00;68.10;;;;;;4995078;28;20125;-84
2023/06/23 13:33:11;;;;;;;5.57;2.20;;;33.30;66.60;;;;;;4995431;28;20046;-85
2023/06/23 13:35:38;;;;;;;4.95;2.15;;;33.60;66.30;;;;;;4995329;28;20538;-83
2023/06/23 13:38:04;;;;;;;4.85;2.00;;;33.50;66.60;;;;;;4994518;28;20539;-78
2023/06/23 13:40:31;;;;;;;4.53;2.00;;;33.70;65.70;;;;;;4994628;28;20070;-85
2023/06/23 13:42:59;;;;;;;4.22;2.20;;;33.40;64.70;;;;;;4996153;28;20046;-81
2023/06/23 13:45:27;;;;;;;4.80;2.22;;;33.70;68.40;;;;;;4977339;28;20101;-84